createdAt,value
2023-03-29T00:00:48.938Z,33.63
2023-03-29T00:03:16.040Z,33.53
2023-03-29T00:05:44.046Z,33.70
2023-03-29T00:08:13.830Z,33.58
2023-03-29T00:10:40.524Z,33.53
2023-03-29T00:13:06.461Z,33.63
2023-03-29T00:15:33.097Z,33.54
2023-03-29T00:17:59.332Z,33.48
2023-03-29T00:20:25.337Z,33.46
2023-03-29T00:22:51.312Z,33.61
2023-03-29T00:25:17.332Z,33.32
2023-03-29T00:27:43.118Z,33.45
2023-03-29T00:30:09.724Z,33.36
2023-03-29T00:32:36.637Z,33.31
2023-03-29T00:35:05.334Z,33.38
2023-03-29T00:37:31.557Z,33.41
2023-03-29T00:39:57.700Z,33.24
2023-03-29T00:42:23.972Z,33.34
2023-03-29T00:45:11.236Z,33.38
2023-03-29T00:47:40.838Z,33.25
2023-03-29T00:50:15.925Z,33.23
2023-03-29T00:52:45.693Z,33.33
2023-03-29T00:55:17.090Z,33.42
2023-03-29T00:57:45.884Z,33.43
2023-03-29T01:00:20.261Z,33.51
2023-03-29T01:02:53.386Z,33.51
2023-03-29T01:05:28.955Z,33.57
2023-03-29T01:08:00.464Z,33.53
2023-03-29T01:10:43.301Z,33.47
2023-03-29T01:13:40.788Z,33.63
2023-03-29T01:16:10.431Z,33.63
2023-03-29T01:18:37.756Z,33.81
2023-03-29T01:21:16.440Z,33.75
2023-03-29T01:24:07.817Z,33.66
2023-03-29T01:26:50.574Z,33.80
2023-03-29T01:29:27.871Z,33.81
2023-03-29T01:32:06.326Z,33.81
2023-03-29T01:34:46.698Z,33.91
2023-03-29T01:37:28.440Z,33.92
2023-03-29T01:39:54.636Z,34.19
2023-03-29T01:42:30.405Z,34.21
2023-03-29T01:45:26.589Z,34.20
2023-03-29T01:48:10.364Z,34.23
2023-03-29T01:50:53.669Z,34.16
2023-03-29T01:53:31.813Z,34.16
2023-03-29T01:56:11.046Z,34.13
2023-03-29T01:58:42.773Z,34.23
2023-03-29T02:01:10.994Z,34.52
2023-03-29T02:03:41.895Z,34.55
2023-03-29T02:06:12.139Z,35.22
2023-03-29T02:08:40.886Z,35.12
2023-03-29T02:11:08.120Z,35.11
2023-03-29T02:13:35.316Z,35.19
2023-03-29T02:16:13.089Z,35.16
2023-03-29T02:18:41.980Z,35.21
2023-03-29T02:21:21.440Z,34.94
2023-03-29T02:23:49.727Z,35.06
2023-03-29T02:26:17.281Z,35.09
2023-03-29T02:28:43.502Z,35.19
2023-03-29T02:31:18.350Z,35.35
2023-03-29T02:33:53.434Z,35.30
2023-03-29T02:36:40.863Z,35.40
2023-03-29T02:39:09.511Z,35.77
2023-03-29T02:41:37.377Z,35.77
2023-03-29T02:44:07.538Z,35.79
2023-03-29T02:46:34.012Z,36.01
2023-03-29T02:49:00.383Z,35.99
2023-03-29T02:51:31.886Z,35.81
2023-03-29T02:54:04.670Z,35.97
2023-03-29T02:56:42.603Z,35.93
2023-03-29T02:59:09.138Z,35.93
2023-03-29T03:01:36.310Z,35.75
2023-03-29T03:04:03.064Z,35.58
2023-03-29T03:06:29.420Z,35.69
2023-03-29T03:08:55.486Z,35.56
2023-03-29T03:11:22.234Z,35.56
2023-03-29T03:13:48.196Z,35.95
2023-03-29T03:16:14.400Z,36.14
2023-03-29T03:18:41.487Z,36.17
2023-03-29T03:21:07.432Z,36.26
2023-03-29T03:23:33.995Z,36.32
2023-03-29T03:26:00.219Z,35.85
2023-03-29T03:28:27.955Z,36.04
2023-03-29T03:30:54.190Z,36.00
2023-03-29T03:33:42.936Z,35.99
2023-03-29T03:36:28.782Z,35.79
2023-03-29T03:38:54.853Z,35.87
2023-03-29T03:41:20.758Z,35.86
2023-03-29T03:43:48.411Z,35.85
2023-03-29T03:46:16.492Z,36.37
2023-03-29T03:48:44.071Z,36.69
2023-03-29T03:51:17.719Z,38.10
2023-03-29T03:53:43.955Z,38.10
2023-03-29T03:56:13.322Z,37.88
2023-03-29T03:59:08.699Z,38.23
2023-03-29T04:01:56.149Z,38.76
2023-03-29T04:04:22.831Z,38.96
2023-03-29T04:07:02.067Z,39.35
2023-03-29T04:09:56.680Z,39.30
2023-03-29T04:12:32.044Z,40.01
2023-03-29T04:14:58.010Z,40.07
2023-03-29T04:17:26.585Z,39.66
2023-03-29T04:19:56.887Z,39.94
2023-03-29T04:22:27.352Z,40.34
2023-03-29T04:24:53.428Z,39.99
2023-03-29T04:27:38.273Z,40.36
2023-03-29T04:30:10.580Z,39.81
2023-03-29T04:32:56.292Z,40.70
2023-03-29T04:35:22.528Z,40.90
2023-03-29T04:37:50.524Z,41.16
2023-03-29T04:40:18.872Z,40.62
2023-03-29T04:42:52.084Z,39.97
2023-03-29T04:45:18.923Z,39.76
2023-03-29T04:48:03.036Z,39.74
2023-03-29T04:50:29.133Z,40.94
2023-03-29T04:52:56.504Z,41.07
2023-03-29T04:55:22.587Z,41.29
2023-03-29T04:57:58.138Z,42.38
2023-03-29T05:00:30.960Z,42.41
2023-03-29T05:03:15.399Z,42.89
2023-03-29T05:06:13.726Z,42.67
2023-03-29T05:08:40.471Z,42.41
2023-03-29T05:11:19.175Z,42.10
2023-03-29T05:13:45.431Z,42.60
2023-03-29T05:16:11.643Z,43.20
2023-03-29T05:18:37.864Z,42.64
2023-03-29T05:21:04.938Z,43.20
2023-03-29T05:23:31.979Z,43.22
2023-03-29T05:26:09.285Z,42.91
2023-03-29T05:28:35.993Z,42.66
2023-03-29T05:31:05.092Z,42.15
2023-03-29T05:33:34.024Z,41.57
2023-03-29T05:36:10.297Z,41.35
2023-03-29T05:38:41.461Z,40.79
2023-03-29T05:41:08.089Z,40.96
2023-03-29T05:44:00.092Z,41.42
2023-03-29T05:46:27.459Z,41.06
2023-03-29T05:48:56.132Z,40.93
2023-03-29T05:51:27.693Z,40.88
2023-03-29T05:53:54.259Z,40.75
2023-03-29T05:56:20.182Z,40.61
2023-03-29T05:58:46.068Z,40.30
2023-03-29T06:01:13.949Z,40.24
2023-03-29T06:03:52.991Z,40.24
2023-03-29T06:06:20.753Z,40.06
2023-03-29T06:08:47.176Z,40.22
2023-03-29T06:11:29.885Z,39.63
2023-03-29T06:14:14.970Z,39.62
2023-03-29T06:16:46.414Z,40.44
2023-03-29T06:19:12.949Z,40.20
2023-03-29T06:21:40.581Z,40.50
2023-03-29T06:24:06.819Z,40.90
2023-03-29T06:26:37.356Z,40.85
2023-03-29T06:29:03.875Z,41.00
2023-03-29T06:31:31.564Z,41.03
2023-03-29T06:33:57.996Z,40.48
2023-03-29T06:36:34.344Z,40.45
2023-03-29T06:39:03.312Z,40.50
2023-03-29T06:41:49.496Z,40.43
2023-03-29T06:44:41.490Z,40.77
2023-03-29T06:47:13.552Z,40.36
2023-03-29T06:49:40.318Z,40.56
2023-03-29T06:52:22.466Z,40.88
2023-03-29T06:54:48.885Z,40.92
2023-03-29T06:57:14.892Z,40.26
2023-03-29T06:59:41.747Z,40.58
2023-03-29T07:02:22.089Z,40.28
2023-03-29T07:04:55.608Z,40.10
2023-03-29T07:07:32.589Z,39.89
2023-03-29T07:10:08.821Z,39.64
2023-03-29T07:13:02.348Z,39.14
2023-03-29T07:15:28.754Z,38.97
2023-03-29T07:18:30.024Z,38.55
2023-03-29T07:20:56.765Z,38.72
2023-03-29T07:23:23.147Z,38.53
2023-03-29T07:25:50.548Z,38.42
2023-03-29T07:28:17.957Z,38.21
2023-03-29T07:30:43.923Z,37.82
2023-03-29T07:33:12.669Z,37.99
2023-03-29T07:35:48.067Z,37.53
2023-03-29T07:38:14.931Z,37.50
2023-03-29T07:40:45.656Z,37.36
2023-03-29T07:43:30.116Z,37.07
2023-03-29T07:46:00.638Z,37.16
2023-03-29T07:48:27.011Z,37.18
2023-03-29T07:50:58.001Z,36.05
2023-03-29T07:53:29.144Z,36.40
2023-03-29T07:55:56.523Z,36.40
2023-03-29T07:58:41.562Z,36.13
2023-03-29T08:01:07.873Z,35.40
2023-03-29T08:04:09.497Z,35.60
2023-03-29T08:06:58.783Z,35.84
2023-03-29T08:09:32.716Z,35.47
2023-03-29T08:11:58.601Z,35.83
2023-03-29T08:14:30.615Z,35.59
2023-03-29T08:17:02.275Z,35.30
2023-03-29T08:19:30.974Z,34.98
2023-03-29T08:22:03.286Z,34.56
2023-03-29T08:24:39.382Z,33.57
2023-03-29T08:27:06.274Z,33.78
2023-03-29T08:29:32.944Z,33.43
2023-03-29T08:31:58.912Z,33.57
2023-03-29T08:34:25.343Z,32.58
2023-03-29T08:37:15.167Z,33.12
2023-03-29T08:39:44.751Z,33.11
2023-03-29T08:42:42.634Z,31.83
2023-03-29T08:45:25.327Z,31.48
2023-03-29T08:47:58.923Z,31.80
2023-03-29T08:50:36.146Z,31.34
2023-03-29T08:53:07.248Z,31.85
2023-03-29T08:55:55.463Z,31.35
2023-03-29T08:58:37.228Z,31.13
2023-03-29T09:01:08.059Z,31.44
2023-03-29T09:03:52.417Z,31.27
2023-03-29T09:06:28.038Z,31.05
2023-03-29T09:08:58.478Z,30.92
2023-03-29T09:11:27.833Z,30.99
2023-03-29T09:14:31.958Z,31.41
2023-03-29T09:17:01.114Z,31.55
2023-03-29T09:19:36.652Z,31.36
2023-03-29T09:22:23.747Z,31.05
2023-03-29T09:25:02.969Z,30.79
2023-03-29T09:27:55.763Z,30.73
2023-03-29T09:30:34.020Z,30.97
2023-03-29T09:33:13.175Z,30.58
2023-03-29T09:36:07.269Z,31.19
2023-03-29T09:38:39.501Z,31.05
2023-03-29T09:41:19.887Z,31.23
2023-03-29T09:43:48.089Z,30.99
2023-03-29T09:46:24.850Z,31.41
2023-03-29T09:48:54.007Z,31.54
2023-03-29T09:51:25.005Z,31.83
2023-03-29T09:53:51.192Z,31.99
2023-03-29T09:56:31.365Z,31.79
2023-03-29T09:59:10.997Z,31.57
2023-03-29T10:01:41.094Z,31.77
2023-03-29T10:04:09.538Z,31.54
2023-03-29T10:06:44.191Z,31.37
2023-03-29T10:09:16.623Z,31.38
2023-03-29T10:11:47.378Z,31.14
2023-03-29T10:14:20.697Z,30.91
2023-03-29T10:16:55.306Z,30.75
2023-03-29T10:19:26.596Z,31.19
2023-03-29T10:21:54.584Z,31.19
2023-03-29T10:24:22.899Z,30.70
2023-03-29T10:26:55.075Z,31.46
2023-03-29T10:29:25.271Z,30.96
2023-03-29T10:31:52.221Z,30.60
2023-03-29T10:34:19.328Z,30.37
2023-03-29T10:36:56.892Z,30.27
2023-03-29T10:39:31.803Z,30.15
2023-03-29T10:41:59.394Z,30.16
2023-03-29T10:44:35.984Z,30.20
2023-03-29T10:47:19.780Z,29.88
2023-03-29T10:49:58.240Z,29.47
2023-03-29T10:52:25.115Z,29.47
2023-03-29T10:54:54.203Z,30.05
2023-03-29T10:57:41.515Z,29.96
2023-03-29T11:00:18.280Z,30.02
2023-03-29T11:02:53.523Z,30.06
2023-03-29T11:05:42.693Z,29.58
2023-03-29T11:08:18.083Z,29.30
2023-03-29T11:11:08.214Z,29.37
2023-03-29T11:13:37.477Z,29.46
2023-03-29T11:16:08.932Z,29.99
2023-03-29T11:18:55.759Z,30.57
2023-03-29T11:21:54.088Z,30.87
2023-03-29T11:24:26.870Z,30.48
2023-03-29T11:27:04.726Z,30.09
2023-03-29T11:29:34.314Z,29.89
2023-03-29T11:32:18.856Z,30.23
2023-03-29T11:35:11.656Z,30.50
2023-03-29T11:37:55.024Z,30.73
2023-03-29T11:40:21.259Z,30.94
2023-03-29T11:42:52.969Z,30.62
2023-03-29T11:45:31.800Z,30.42
2023-03-29T11:48:02.033Z,30.81
2023-03-29T11:50:57.076Z,30.58
2023-03-29T11:53:38.157Z,31.02
2023-03-29T11:56:15.095Z,30.95
2023-03-29T11:58:47.640Z,30.67
2023-03-29T12:01:23.020Z,31.07
2023-03-29T12:03:56.748Z,30.68
2023-03-29T12:06:29.143Z,30.53
2023-03-29T12:09:06.217Z,30.47
2023-03-29T12:11:45.184Z,30.52
2023-03-29T12:14:27.812Z,30.60
2023-03-29T12:17:00.874Z,30.65
2023-03-29T12:19:30.034Z,30.82
2023-03-29T12:21:57.694Z,30.52
2023-03-29T12:24:29.119Z,30.55
2023-03-29T12:27:23.753Z,30.70
2023-03-29T12:30:18.218Z,31.02
2023-03-29T12:33:05.329Z,31.26
2023-03-29T12:36:03.876Z,31.27
2023-03-29T12:38:51.803Z,31.68
2023-03-29T12:41:37.833Z,31.63
2023-03-29T12:44:08.421Z,31.36
2023-03-29T12:46:46.514Z,30.33
2023-03-29T12:49:30.741Z,30.17
2023-03-29T12:51:58.940Z,30.25
2023-03-29T12:54:33.473Z,29.80
2023-03-29T12:57:02.331Z,29.65
2023-03-29T12:59:46.981Z,29.96
2023-03-29T13:02:17.348Z,30.70
2023-03-29T13:04:43.263Z,30.67
2023-03-29T13:07:23.477Z,30.90
2023-03-29T13:09:52.912Z,30.82
2023-03-29T13:12:19.637Z,30.97
2023-03-29T13:15:01.758Z,30.97
2023-03-29T13:17:48.021Z,30.74
2023-03-29T13:20:38.852Z,31.47
2023-03-29T13:23:23.426Z,31.39
2023-03-29T13:25:49.716Z,31.40
2023-03-29T13:28:36.992Z,31.16
2023-03-29T13:31:24.547Z,31.17
2023-03-29T13:34:31.191Z,31.00
2023-03-29T13:37:31.584Z,30.91
2023-03-29T13:39:57.552Z,30.58
2023-03-29T13:42:36.763Z,30.55
2023-03-29T13:45:24.553Z,31.02
2023-03-29T13:48:21.841Z,31.52
2023-03-29T13:51:07.344Z,31.46
2023-03-29T13:53:43.548Z,31.30
2023-03-29T13:56:19.423Z,31.27
2023-03-29T13:58:50.616Z,31.81
2023-03-29T14:01:22.939Z,31.66
2023-03-29T14:03:53.138Z,31.93
2023-03-29T14:06:25.904Z,31.98
2023-03-29T14:08:53.533Z,32.20
2023-03-29T14:11:23.879Z,32.15
2023-03-29T14:13:54.831Z,32.37
2023-03-29T14:16:21.606Z,32.34
2023-03-29T14:18:50.648Z,32.59
2023-03-29T14:21:17.860Z,33.10
2023-03-29T14:23:46.095Z,32.73
2023-03-29T14:26:21.376Z,33.22
2023-03-29T14:28:52.964Z,33.45
2023-03-29T14:31:21.674Z,33.28
2023-03-29T14:33:56.458Z,33.36
2023-03-29T14:36:26.611Z,33.67
2023-03-29T14:38:58.728Z,33.68
2023-03-29T14:41:33.861Z,34.00
2023-03-29T14:44:00.570Z,34.21
2023-03-29T14:46:28.494Z,34.51
2023-03-29T14:48:56.168Z,34.51
2023-03-29T14:51:28.034Z,34.53
2023-03-29T14:53:55.488Z,34.63
2023-03-29T14:56:24.908Z,34.67
2023-03-29T14:58:54.124Z,34.77
2023-03-29T15:01:22.996Z,35.10
2023-03-29T15:03:53.487Z,35.09
2023-03-29T15:06:22.233Z,35.08
2023-03-29T15:09:03.769Z,35.11
2023-03-29T15:11:32.236Z,35.14
2023-03-29T15:14:05.594Z,35.33
2023-03-29T15:16:32.934Z,35.28
2023-03-29T15:19:01.229Z,35.68
2023-03-29T15:21:34.872Z,35.56
2023-03-29T15:24:03.837Z,35.67
2023-03-29T15:26:35.473Z,35.82
2023-03-29T15:29:23.008Z,36.09
2023-03-29T15:31:58.507Z,36.11
2023-03-29T15:34:28.724Z,36.44
2023-03-29T15:36:57.301Z,36.42
2023-03-29T15:39:24.366Z,36.42
2023-03-29T15:41:52.075Z,36.40
2023-03-29T15:44:32.911Z,36.59
2023-03-29T15:47:00.007Z,36.83
2023-03-29T15:49:28.002Z,37.04
2023-03-29T15:51:54.095Z,36.99
2023-03-29T15:54:21.958Z,36.95
2023-03-29T15:56:52.882Z,37.04
2023-03-29T15:59:19.017Z,37.33
2023-03-29T16:01:45.973Z,37.48
2023-03-29T16:04:14.758Z,37.89
2023-03-29T16:06:42.345Z,37.93
2023-03-29T16:09:11.183Z,37.84
2023-03-29T16:11:38.664Z,37.94
2023-03-29T16:14:26.477Z,37.92
2023-03-29T16:16:57.693Z,38.35
2023-03-29T16:19:25.334Z,38.44
2023-03-29T16:21:52.456Z,38.38
2023-03-29T16:24:21.421Z,38.69
2023-03-29T16:26:48.015Z,38.81
2023-03-29T16:29:16.620Z,38.53
2023-03-29T16:31:44.001Z,38.71
2023-03-29T16:34:13.048Z,38.58
2023-03-29T16:36:40.297Z,38.54
2023-03-29T16:39:06.683Z,38.89
2023-03-29T16:41:32.765Z,39.15
2023-03-29T16:43:59.335Z,39.48
2023-03-29T16:46:25.818Z,39.56
2023-03-29T16:48:53.031Z,39.73
2023-03-29T16:51:20.150Z,40.33
2023-03-29T16:53:50.870Z,40.39
2023-03-29T16:56:20.021Z,40.28
2023-03-29T16:58:46.549Z,40.37
2023-03-29T17:01:15.332Z,40.90
2023-03-29T17:03:42.418Z,41.23
2023-03-29T17:06:10.294Z,41.48
2023-03-29T17:08:37.406Z,42.06
2023-03-29T17:11:04.064Z,42.06
2023-03-29T17:13:30.409Z,41.91
2023-03-29T17:15:57.178Z,42.30
2023-03-29T17:18:24.582Z,42.84
2023-03-29T17:20:52.282Z,42.77
2023-03-29T17:23:18.256Z,42.85
2023-03-29T17:25:44.237Z,43.06
2023-03-29T17:28:10.859Z,42.94
2023-03-29T17:30:37.452Z,42.78
2023-03-29T17:33:03.502Z,43.14
2023-03-29T17:35:29.658Z,43.22
2023-03-29T17:37:55.889Z,43.33
2023-03-29T17:40:21.880Z,43.66
2023-03-29T17:42:48.247Z,44.07
2023-03-29T17:45:15.606Z,44.10
2023-03-29T17:47:41.953Z,44.35
2023-03-29T17:50:09.583Z,44.39
2023-03-29T17:52:35.797Z,44.86
2023-03-29T17:55:01.940Z,45.18
2023-03-29T17:57:28.210Z,45.31
2023-03-29T17:59:54.179Z,45.55
2023-03-29T18:02:22.425Z,45.32
2023-03-29T18:04:49.992Z,45.59
2023-03-29T18:07:16.697Z,45.56
2023-03-29T18:09:42.667Z,45.56
2023-03-29T18:12:09.049Z,45.95
2023-03-29T18:14:35.281Z,46.17
2023-03-29T18:17:01.885Z,46.36
2023-03-29T18:19:28.031Z,46.45
2023-03-29T18:21:54.069Z,46.48
2023-03-29T18:24:20.035Z,46.53
2023-03-29T18:26:46.090Z,46.79
2023-03-29T18:29:12.513Z,46.75
2023-03-29T18:31:38.596Z,46.79
2023-03-29T18:34:04.624Z,46.79
2023-03-29T18:36:31.479Z,47.11
2023-03-29T18:39:04.642Z,47.32
2023-03-29T18:41:32.289Z,47.18
2023-03-29T18:43:59.563Z,47.43
2023-03-29T18:46:29.828Z,47.74
2023-03-29T18:48:57.428Z,47.62
2023-03-29T18:51:25.113Z,47.59
2023-03-29T18:53:52.210Z,47.71
2023-03-29T18:56:18.226Z,48.24
2023-03-29T18:58:44.105Z,48.30
2023-03-29T19:01:10.636Z,48.49
2023-03-29T19:03:36.822Z,48.06
2023-03-29T19:06:04.028Z,48.43
2023-03-29T19:08:32.251Z,48.53
2023-03-29T19:11:04.024Z,48.59
2023-03-29T19:13:30.299Z,48.51
2023-03-29T19:15:56.385Z,48.65
2023-03-29T19:18:25.725Z,48.81
2023-03-29T19:20:53.551Z,48.98
2023-03-29T19:23:22.475Z,49.00
2023-03-29T19:25:59.624Z,48.59
2023-03-29T19:28:27.686Z,49.22
2023-03-29T19:30:58.120Z,49.37
2023-03-29T19:33:24.620Z,49.42
2023-03-29T19:35:52.493Z,49.33
2023-03-29T19:38:20.425Z,49.35
2023-03-29T19:40:48.766Z,49.38
2023-03-29T19:43:16.193Z,49.31
2023-03-29T19:45:49.688Z,49.14
2023-03-29T19:48:22.505Z,49.40
2023-03-29T19:50:50.683Z,49.39
2023-03-29T19:53:23.789Z,49.63
2023-03-29T19:55:51.876Z,49.51
2023-03-29T19:58:19.468Z,49.60
2023-03-29T20:00:51.474Z,49.49
2023-03-29T20:03:22.485Z,49.77
2023-03-29T20:05:52.699Z,49.59
2023-03-29T20:08:20.782Z,49.67
2023-03-29T20:10:49.161Z,50.03
2023-03-29T20:13:31.469Z,50.04
2023-03-29T20:16:15.448Z,50.18
2023-03-29T20:18:47.536Z,50.12
2023-03-29T20:21:18.275Z,50.15
2023-03-29T20:23:47.777Z,50.07
2023-03-29T20:26:14.644Z,50.35
2023-03-29T20:28:42.058Z,50.35
2023-03-29T20:31:13.611Z,50.39
2023-03-29T20:33:40.877Z,50.44
2023-03-29T20:36:08.139Z,50.73
2023-03-29T20:38:35.852Z,50.81
2023-03-29T20:41:05.736Z,50.90
2023-03-29T20:43:36.769Z,50.82
2023-03-29T20:46:17.506Z,51.15
2023-03-29T20:48:53.411Z,51.06
2023-03-29T20:51:27.407Z,51.30
2023-03-29T20:54:01.425Z,51.28
2023-03-29T20:56:34.673Z,51.40
2023-03-29T20:59:01.248Z,51.68
2023-03-29T21:01:28.883Z,51.56
2023-03-29T21:03:55.214Z,51.66
2023-03-29T21:06:23.611Z,51.82
2023-03-29T21:08:51.896Z,51.76
2023-03-29T21:11:20.249Z,51.60
2023-03-29T21:13:46.772Z,51.78
2023-03-29T21:16:13.075Z,51.92
2023-03-29T21:18:39.824Z,51.85
2023-03-29T21:21:07.624Z,52.06
2023-03-29T21:23:37.527Z,51.79
2023-03-29T21:26:06.630Z,51.88
2023-03-29T21:28:34.230Z,51.95
2023-03-29T21:31:04.966Z,51.80
2023-03-29T21:33:31.653Z,51.77
2023-03-29T21:35:57.841Z,51.63
2023-03-29T21:38:23.900Z,51.72
2023-03-29T21:40:49.973Z,51.66
2023-03-29T21:43:15.995Z,51.79
2023-03-29T21:45:41.963Z,51.55
2023-03-29T21:48:08.005Z,51.58
2023-03-29T21:50:34.144Z,51.52
2023-03-29T21:53:01.340Z,51.34
2023-03-29T21:55:27.922Z,51.33
2023-03-29T21:57:53.906Z,51.52
2023-03-29T22:00:21.641Z,51.35
2023-03-29T22:02:47.833Z,51.48
2023-03-29T22:05:14.413Z,51.35
2023-03-29T22:07:40.371Z,51.42
2023-03-29T22:10:07.210Z,51.45
2023-03-29T22:12:37.328Z,51.54
2023-03-29T22:15:08.249Z,51.30
2023-03-29T22:17:35.318Z,51.38
2023-03-29T22:20:02.075Z,51.39
2023-03-29T22:22:28.101Z,51.60
2023-03-29T22:24:54.472Z,51.83
2023-03-29T22:27:21.459Z,52.14
2023-03-29T22:29:47.849Z,52.04
2023-03-29T22:32:13.895Z,51.91
2023-03-29T22:34:39.904Z,51.99
2023-03-29T22:37:05.739Z,51.95
2023-03-29T22:39:34.567Z,51.98
2023-03-29T22:42:00.655Z,52.02
2023-03-29T22:44:26.652Z,52.21
2023-03-29T22:46:52.564Z,52.27
2023-03-29T22:49:18.536Z,52.38
2023-03-29T22:51:44.713Z,51.92
2023-03-29T22:54:11.405Z,52.13
2023-03-29T22:56:37.283Z,52.49
2023-03-29T22:59:03.492Z,52.57
2023-03-29T23:01:29.693Z,52.43
2023-03-29T23:03:55.719Z,52.31
2023-03-29T23:06:21.603Z,52.88
2023-03-29T23:08:47.543Z,52.98
2023-03-29T23:11:13.434Z,52.99
2023-03-29T23:13:39.443Z,53.29
2023-03-29T23:16:05.629Z,52.93
2023-03-29T23:18:34.055Z,53.24
2023-03-29T23:21:00.795Z,53.10
2023-03-29T23:23:27.836Z,53.18
2023-03-29T23:25:55.051Z,53.31
2023-03-29T23:28:26.602Z,53.34
2023-03-29T23:30:54.698Z,53.66
2023-03-29T23:33:21.271Z,53.45
2023-03-29T23:35:47.745Z,53.56
2023-03-29T23:38:13.687Z,53.55
2023-03-29T23:40:39.608Z,53.48
2023-03-29T23:43:05.536Z,53.52
2023-03-29T23:45:31.817Z,53.75
2023-03-29T23:47:57.903Z,53.68
2023-03-29T23:50:23.923Z,53.75
2023-03-29T23:52:50.901Z,53.79
2023-03-29T23:55:17.415Z,54.06
2023-03-29T23:57:43.303Z,53.83
